createdAt,value
2023-05-12T00:01:47.777Z,12.84
2023-05-12T00:05:17.915Z,12.81
2023-05-12T00:08:46.030Z,12.79
2023-05-12T00:12:16.762Z,12.76
2023-05-12T00:15:43.876Z,12.71
2023-05-12T00:19:12.396Z,12.69
2023-05-12T00:22:39.592Z,12.66
2023-05-12T00:26:06.600Z,12.62
2023-05-12T00:29:33.929Z,12.59
2023-05-12T00:33:01.883Z,12.54
2023-05-12T00:36:30.788Z,12.50
2023-05-12T00:39:58.003Z,12.43
2023-05-12T00:43:25.352Z,12.37
2023-05-12T00:46:52.732Z,12.32
2023-05-12T00:50:19.754Z,12.26
2023-05-12T00:53:51.101Z,12.19
2023-05-12T00:57:20.539Z,12.13
2023-05-12T01:00:48.073Z,12.06
2023-05-12T01:04:15.745Z,12.00
2023-05-12T01:07:43.922Z,11.94
2023-05-12T01:11:11.297Z,11.89
2023-05-12T01:14:39.070Z,11.84
2023-05-12T01:18:08.876Z,11.80
2023-05-12T01:21:37.260Z,11.75
2023-05-12T01:25:07.854Z,11.69
2023-05-12T01:28:36.220Z,11.65
2023-05-12T01:32:04.445Z,11.63
2023-05-12T01:35:32.574Z,11.62
2023-05-12T01:39:01.861Z,11.60
2023-05-12T01:42:29.573Z,11.60
2023-05-12T01:45:59.683Z,11.61
2023-05-12T01:49:27.122Z,11.61
2023-05-12T01:52:55.307Z,11.62
2023-05-12T01:56:23.269Z,11.63
2023-05-12T01:59:50.182Z,11.64
2023-05-12T02:03:18.889Z,11.65
2023-05-12T02:06:46.722Z,11.64
2023-05-12T02:10:14.311Z,11.65
2023-05-12T02:13:42.035Z,11.66
2023-05-12T02:17:09.151Z,11.64
2023-05-12T02:20:36.474Z,11.65
2023-05-12T02:24:04.076Z,11.64
2023-05-12T02:27:32.672Z,11.61
2023-05-12T02:30:59.876Z,11.58
2023-05-12T02:34:28.260Z,11.56
2023-05-12T02:37:57.166Z,11.55
2023-05-12T02:41:24.221Z,11.53
2023-05-12T02:44:51.559Z,11.51
2023-05-12T02:48:18.692Z,11.50
2023-05-12T02:51:48.817Z,11.49
2023-05-12T02:55:15.393Z,11.47
2023-05-12T02:58:42.261Z,11.45
2023-05-12T03:02:09.351Z,11.45
2023-05-12T03:05:36.390Z,11.43
2023-05-12T03:09:04.470Z,11.42
2023-05-12T03:12:31.818Z,11.40
2023-05-12T03:16:02.228Z,11.39
2023-05-12T03:19:30.211Z,11.39
2023-05-12T03:22:57.496Z,11.39
2023-05-12T03:26:25.140Z,11.38
2023-05-12T03:29:52.311Z,11.35
2023-05-12T03:33:19.232Z,11.34
2023-05-12T03:36:47.705Z,11.34
2023-05-12T03:40:19.263Z,11.34
2023-05-12T03:43:47.530Z,11.37
2023-05-12T03:47:15.273Z,11.38
2023-05-12T03:50:43.174Z,11.39
2023-05-12T03:54:11.440Z,11.42
2023-05-12T03:57:38.689Z,11.44
2023-05-12T04:01:05.969Z,11.45
2023-05-12T04:04:32.888Z,11.45
2023-05-12T04:07:59.485Z,11.48
2023-05-12T04:11:26.474Z,11.51
2023-05-12T04:14:53.532Z,11.53
2023-05-12T04:18:20.490Z,11.56
2023-05-12T04:21:47.723Z,11.61
2023-05-12T04:25:14.518Z,11.66
2023-05-12T04:28:41.478Z,11.70
2023-05-12T04:32:10.440Z,11.75
2023-05-12T04:35:37.830Z,11.79
2023-05-12T04:39:05.791Z,11.82
2023-05-12T04:42:33.195Z,11.86
2023-05-12T04:46:03.516Z,11.90
2023-05-12T04:49:31.393Z,11.89
2023-05-12T04:52:58.692Z,11.97
2023-05-12T04:56:25.794Z,12.02
2023-05-12T04:59:53.818Z,12.09
2023-05-12T05:03:21.358Z,12.14
2023-05-12T05:06:50.038Z,12.21
2023-05-12T05:10:18.821Z,12.27
2023-05-12T05:13:45.945Z,12.34
2023-05-12T05:17:13.667Z,12.38
2023-05-12T05:20:45.038Z,12.43
2023-05-12T05:24:15.183Z,12.49
2023-05-12T05:27:42.386Z,12.55
2023-05-12T05:31:09.389Z,12.63
2023-05-12T05:34:36.608Z,12.70
2023-05-12T05:38:04.041Z,12.79
2023-05-12T05:41:32.493Z,12.86
2023-05-12T05:44:59.362Z,12.96
2023-05-12T05:48:26.174Z,13.04
2023-05-12T05:51:54.017Z,13.13
2023-05-12T05:55:21.669Z,13.22
2023-05-12T05:58:50.431Z,13.33
2023-05-12T06:02:17.736Z,13.43
2023-05-12T06:05:44.960Z,13.52
2023-05-12T06:09:13.141Z,13.62
2023-05-12T06:12:41.130Z,13.72
2023-05-12T06:16:08.713Z,13.83
2023-05-12T06:19:35.408Z,13.92
2023-05-12T06:23:03.119Z,14.03
2023-05-12T06:26:31.645Z,14.15
2023-05-12T06:29:58.346Z,14.26
2023-05-12T06:33:25.537Z,14.38
2023-05-12T06:36:54.907Z,14.48
2023-05-12T06:40:25.448Z,14.58
2023-05-12T06:43:53.669Z,14.69
2023-05-12T06:47:27.726Z,14.80
2023-05-12T06:50:59.416Z,14.89
2023-05-12T06:54:28.879Z,14.97
2023-05-12T06:57:58.709Z,15.07
2023-05-12T07:01:26.036Z,15.16
2023-05-12T07:04:53.719Z,15.28
2023-05-12T07:08:20.883Z,15.41
2023-05-12T07:11:49.067Z,15.56
2023-05-12T07:15:16.793Z,15.68
2023-05-12T07:18:44.539Z,15.79
2023-05-12T07:22:11.700Z,15.91
2023-05-12T07:25:39.600Z,16.04
2023-05-12T07:29:07.607Z,16.16
2023-05-12T07:32:34.685Z,16.27
2023-05-12T07:36:01.922Z,16.41
2023-05-12T07:39:29.826Z,16.54
2023-05-12T07:42:57.378Z,16.69
2023-05-12T07:46:24.188Z,16.84
2023-05-12T07:49:51.709Z,16.95
2023-05-12T07:53:19.414Z,17.06
2023-05-12T07:56:46.755Z,17.19
2023-05-12T08:00:16.774Z,17.35
2023-05-12T08:03:46.963Z,17.53
2023-05-12T08:07:19.389Z,17.68
2023-05-12T08:10:46.973Z,17.84
2023-05-12T08:14:14.961Z,18.00
2023-05-12T08:17:43.452Z,18.10
2023-05-12T08:21:11.561Z,18.18
2023-05-12T08:24:38.625Z,18.27
2023-05-12T08:28:05.406Z,18.38
2023-05-12T08:31:32.310Z,18.47
2023-05-12T08:34:59.553Z,18.57
2023-05-12T08:38:26.895Z,18.64
2023-05-12T08:42:02.632Z,18.74
2023-05-12T08:45:30.093Z,18.87
2023-05-12T08:48:59.100Z,19.02
2023-05-12T08:52:26.225Z,19.19
2023-05-12T08:57:08.854Z,19.36
2023-05-12T08:59:45.242Z,19.50
2023-05-12T09:03:14.728Z,19.62
2023-05-12T09:06:44.010Z,19.75
2023-05-12T09:10:29.877Z,19.85
2023-05-12T09:14:05.001Z,19.96
2023-05-12T09:17:31.966Z,20.03
2023-05-12T09:20:58.644Z,20.08
2023-05-12T09:24:37.796Z,20.14
2023-05-12T09:28:05.347Z,20.21
2023-05-12T09:31:32.051Z,20.26
2023-05-12T09:34:58.987Z,20.30
2023-05-12T09:38:26.515Z,20.35
2023-05-12T09:41:55.103Z,20.45
2023-05-12T09:45:23.061Z,20.56
2023-05-12T09:48:53.581Z,20.65
2023-05-12T09:52:24.021Z,20.76
2023-05-12T09:55:52.525Z,20.83
2023-05-12T09:59:21.512Z,20.90
2023-05-12T10:02:52.619Z,20.92
2023-05-12T10:06:25.585Z,21.01
2023-05-12T10:09:53.236Z,21.08
2023-05-12T10:13:21.534Z,21.14
2023-05-12T10:16:49.283Z,21.20
2023-05-12T10:20:17.629Z,21.26
2023-05-12T10:23:46.654Z,21.30
2023-05-12T10:27:17.556Z,21.37
2023-05-12T10:30:46.791Z,21.49
2023-05-12T10:34:20.033Z,21.63
2023-05-12T10:37:48.444Z,21.74
2023-05-12T10:41:17.130Z,21.86
2023-05-12T10:44:53.760Z,21.90
2023-05-12T10:48:20.785Z,21.92
2023-05-12T10:51:52.057Z,21.97
2023-05-12T10:55:19.987Z,22.01
2023-05-12T10:59:10.410Z,22.06
2023-05-12T11:02:40.111Z,22.11
2023-05-12T11:06:10.482Z,22.20
2023-05-12T11:09:50.380Z,22.30
2023-05-12T11:13:23.400Z,22.39
2023-05-12T11:16:50.611Z,22.46
2023-05-12T11:20:30.210Z,22.49
2023-05-12T11:23:59.043Z,22.54
2023-05-12T11:27:26.624Z,22.65
2023-05-12T11:30:55.635Z,22.75
2023-05-12T11:34:27.370Z,22.82
2023-05-12T11:37:54.280Z,22.84
2023-05-12T11:41:26.707Z,22.89
2023-05-12T11:44:55.693Z,22.97
2023-05-12T11:48:23.071Z,23.00
2023-05-12T11:51:52.522Z,23.07
2023-05-12T11:55:24.594Z,23.14
2023-05-12T11:58:58.030Z,23.22
2023-05-12T12:02:25.199Z,23.34
2023-05-12T12:06:02.976Z,23.34
2023-05-12T12:09:36.791Z,23.44
2023-05-12T12:13:06.152Z,23.61
2023-05-12T12:16:34.977Z,23.83
2023-05-12T12:20:02.250Z,24.02
2023-05-12T12:23:33.335Z,24.18
2023-05-12T12:27:09.045Z,24.34
2023-05-12T12:30:35.898Z,24.50
2023-05-12T12:34:02.879Z,24.70
2023-05-12T12:37:30.503Z,24.85
2023-05-12T12:40:57.447Z,25.04
2023-05-12T12:44:24.420Z,25.19
2023-05-12T12:47:55.020Z,25.24
2023-05-12T12:51:23.591Z,25.27
2023-05-12T12:54:53.461Z,25.45
2023-05-12T12:58:20.707Z,25.69
2023-05-12T13:01:50.799Z,25.82
2023-05-12T13:05:18.101Z,26.02
2023-05-12T13:08:45.929Z,26.19
2023-05-12T13:12:13.705Z,26.42
2023-05-12T13:15:41.989Z,26.55
2023-05-12T13:19:09.250Z,26.74
2023-05-12T13:22:36.185Z,26.73
2023-05-12T13:26:03.192Z,26.86
2023-05-12T13:29:30.537Z,26.95
2023-05-12T13:32:57.715Z,27.07
2023-05-12T13:36:24.273Z,27.08
2023-05-12T13:39:51.829Z,27.13
2023-05-12T13:43:19.470Z,27.16
2023-05-12T13:46:46.409Z,27.19
2023-05-12T13:50:13.803Z,27.26
2023-05-12T13:53:41.014Z,27.35
2023-05-12T13:57:14.470Z,27.44
2023-05-12T14:00:42.030Z,27.53
2023-05-12T14:04:09.376Z,27.63
2023-05-12T14:07:35.989Z,27.61
2023-05-12T14:11:02.801Z,27.46
2023-05-12T14:14:29.476Z,27.41
2023-05-12T14:17:56.169Z,27.34
2023-05-12T14:21:23.805Z,27.50
2023-05-12T14:24:51.172Z,27.56
2023-05-12T14:28:18.069Z,27.64
2023-05-12T14:31:45.249Z,27.56
2023-05-12T14:35:13.375Z,27.45
2023-05-12T14:38:40.216Z,27.46
2023-05-12T14:42:07.424Z,27.57
2023-05-12T14:45:34.518Z,27.73
2023-05-12T14:49:01.600Z,27.93
2023-05-12T14:52:28.074Z,28.02
2023-05-12T14:55:55.104Z,28.03
2023-05-12T14:59:22.433Z,28.06
2023-05-12T15:02:49.689Z,27.99
2023-05-12T15:06:17.023Z,27.95
2023-05-12T15:09:44.826Z,27.89
2023-05-12T15:13:12.916Z,27.85
2023-05-12T15:16:40.325Z,27.87
2023-05-12T15:20:10.134Z,27.80
2023-05-12T15:23:37.437Z,27.71
2023-05-12T15:27:04.295Z,27.55
2023-05-12T15:30:36.146Z,27.25
2023-05-12T15:34:06.449Z,27.15
2023-05-12T15:37:33.317Z,27.04
2023-05-12T15:41:02.510Z,26.88
2023-05-12T15:44:30.660Z,26.77
2023-05-12T15:48:01.439Z,26.74
2023-05-12T15:51:30.101Z,26.49
2023-05-12T15:54:57.259Z,26.25
2023-05-12T15:58:28.018Z,25.93
2023-05-12T16:01:55.782Z,25.47
2023-05-12T16:05:24.270Z,24.98
2023-05-12T16:08:52.866Z,24.63
2023-05-12T16:12:20.172Z,24.33
2023-05-12T16:15:47.322Z,24.04
2023-05-12T16:19:14.269Z,23.80
2023-05-12T16:22:42.768Z,23.62
2023-05-12T16:26:09.974Z,23.46
2023-05-12T16:29:37.244Z,23.32
2023-05-12T16:33:04.065Z,23.18
2023-05-12T16:36:32.419Z,23.03
2023-05-12T16:39:59.592Z,22.89
2023-05-12T16:43:26.546Z,22.75
2023-05-12T16:46:53.738Z,22.61
2023-05-12T16:50:21.161Z,22.44
2023-05-12T16:53:48.220Z,22.26
2023-05-12T16:57:15.482Z,22.09
2023-05-12T17:00:43.663Z,21.95
2023-05-12T17:04:12.772Z,21.83
2023-05-12T17:07:41.258Z,21.72
2023-05-12T17:11:10.052Z,21.63
2023-05-12T17:14:37.452Z,21.50
2023-05-12T17:18:06.493Z,21.38
2023-05-12T17:21:34.164Z,21.28
2023-05-12T17:25:03.333Z,21.15
2023-05-12T17:28:32.164Z,21.03
2023-05-12T17:32:02.455Z,20.94
2023-05-12T17:35:30.420Z,20.86
2023-05-12T17:38:58.517Z,20.76
2023-05-12T17:42:29.029Z,20.64
2023-05-12T17:45:55.723Z,20.55
2023-05-12T17:49:22.687Z,20.44
2023-05-12T17:52:50.398Z,20.34
2023-05-12T17:56:17.900Z,20.25
2023-05-12T17:59:45.339Z,20.16
2023-05-12T18:03:16.011Z,20.07
2023-05-12T18:06:42.695Z,19.99
2023-05-12T18:10:12.614Z,19.90
2023-05-12T18:13:39.774Z,19.81
2023-05-12T18:17:06.944Z,19.72
2023-05-12T18:20:34.250Z,19.63
2023-05-12T18:24:01.651Z,19.51
2023-05-12T18:27:29.200Z,19.41
2023-05-12T18:30:58.061Z,19.32
2023-05-12T18:34:28.617Z,19.21
2023-05-12T18:37:56.168Z,19.11
2023-05-12T18:41:22.981Z,19.00
2023-05-12T18:44:50.361Z,18.88
2023-05-12T18:48:17.522Z,18.76
2023-05-12T18:51:46.015Z,18.64
2023-05-12T18:55:21.961Z,18.52
2023-05-12T18:58:51.449Z,18.40
2023-05-12T19:02:19.486Z,18.26
2023-05-12T19:05:49.675Z,18.13
2023-05-12T19:09:24.657Z,17.98
2023-05-12T19:12:59.366Z,17.83
2023-05-12T19:16:31.946Z,17.71
2023-05-12T19:20:03.253Z,17.60
2023-05-12T19:23:33.470Z,17.52
2023-05-12T19:27:04.823Z,17.41
2023-05-12T19:30:36.078Z,17.31
2023-05-12T19:34:10.686Z,17.15
2023-05-12T19:37:46.665Z,17.02
2023-05-12T19:41:19.319Z,16.91
2023-05-12T19:45:01.297Z,16.84
2023-05-12T19:48:36.399Z,16.77
2023-05-12T19:52:14.003Z,16.70
2023-05-12T19:55:45.497Z,16.63
2023-05-12T19:59:15.339Z,16.57
2023-05-12T20:02:46.379Z,16.51
2023-05-12T20:06:22.487Z,16.45
2023-05-12T20:09:56.836Z,16.36
2023-05-12T20:13:29.122Z,16.30
2023-05-12T20:17:11.332Z,16.23
2023-05-12T20:20:42.107Z,16.15
2023-05-12T20:24:16.394Z,16.07
2023-05-12T20:27:57.171Z,15.97
2023-05-12T20:31:26.630Z,15.86
2023-05-12T20:34:55.988Z,15.76
2023-05-12T20:38:24.501Z,15.67
2023-05-12T20:42:04.466Z,15.58
2023-05-12T20:45:34.203Z,15.47
2023-05-12T20:49:02.062Z,15.37
2023-05-12T20:52:33.363Z,15.29
2023-05-12T20:55:59.989Z,15.16
2023-05-12T20:59:26.852Z,15.07
2023-05-12T21:02:54.775Z,15.00
2023-05-12T21:06:22.266Z,14.91
2023-05-12T21:09:49.802Z,14.84
2023-05-12T21:13:20.066Z,14.77
2023-05-12T21:16:49.280Z,14.70
2023-05-12T21:20:16.731Z,14.63
2023-05-12T21:23:45.476Z,14.54
2023-05-12T21:27:13.159Z,14.44
2023-05-12T21:30:43.897Z,14.36
2023-05-12T21:34:13.049Z,14.27
2023-05-12T21:37:54.173Z,14.22
2023-05-12T21:41:21.755Z,14.17
2023-05-12T21:44:50.856Z,14.12
2023-05-12T21:48:18.168Z,14.08
2023-05-12T21:51:45.096Z,14.04
2023-05-12T21:55:15.308Z,13.99
2023-05-12T21:58:43.136Z,13.93
2023-05-12T22:02:11.700Z,13.88
2023-05-12T22:05:39.259Z,13.85
2023-05-12T22:09:06.131Z,13.81
2023-05-12T22:12:33.750Z,13.75
2023-05-12T22:16:01.562Z,13.67
2023-05-12T22:19:29.232Z,13.59
2023-05-12T22:22:56.361Z,13.52
2023-05-12T22:26:23.604Z,13.44
2023-05-12T22:29:50.611Z,13.36
2023-05-12T22:33:18.637Z,13.28
2023-05-12T22:36:45.385Z,13.21
2023-05-12T22:40:14.177Z,13.16
2023-05-12T22:43:41.706Z,13.11
2023-05-12T22:47:09.822Z,13.06
2023-05-12T22:50:36.631Z,13.01
2023-05-12T22:54:07.737Z,12.96
2023-05-12T22:57:34.935Z,12.93
2023-05-12T23:01:06.220Z,12.87
2023-05-12T23:04:40.530Z,12.81
2023-05-12T23:08:08.346Z,12.77
2023-05-12T23:11:35.441Z,12.70
2023-05-12T23:15:03.272Z,12.66
2023-05-12T23:18:34.424Z,12.62
2023-05-12T23:22:01.747Z,12.56
2023-05-12T23:25:28.694Z,12.50
2023-05-12T23:28:56.049Z,12.43
2023-05-12T23:32:24.077Z,12.37
2023-05-12T23:35:52.387Z,12.31
2023-05-12T23:39:19.509Z,12.24
2023-05-12T23:42:47.561Z,12.16
2023-05-12T23:46:14.800Z,12.09
2023-05-12T23:49:43.883Z,12.04
2023-05-12T23:53:11.791Z,11.99
2023-05-12T23:56:41.444Z,11.93
